createdAt,value
2018-12-01T00:00:29.381Z,36.00
2018-12-01T00:02:58.745Z,42.90
2018-12-01T00:05:27.740Z,44.13
2018-12-01T00:07:57.033Z,50.60
2018-12-01T00:10:26.033Z,39.15
2018-12-01T00:12:55.096Z,44.10
2018-12-01T00:15:26.505Z,42.10
2018-12-01T00:17:55.992Z,47.05
2018-12-01T00:20:26.991Z,46.37
2018-12-01T00:22:56.020Z,46.98
2018-12-01T00:25:26.636Z,50.10
2018-12-01T00:27:55.610Z,42.05
2018-12-01T00:30:25.151Z,42.65
2018-12-01T00:32:55.360Z,40.92
2018-12-01T00:35:24.350Z,43.95
2018-12-01T00:37:53.312Z,41.35
2018-12-01T00:40:22.537Z,44.05
2018-12-01T00:42:51.599Z,41.65
2018-12-01T00:45:21.570Z,38.48
2018-12-01T00:47:51.714Z,47.98
2018-12-01T00:50:21.896Z,44.30
2018-12-01T00:52:51.711Z,52.40
2018-12-01T00:55:20.982Z,50.60
2018-12-01T00:57:49.936Z,56.30
2018-12-01T01:00:23.032Z,49.48
2018-12-01T01:02:54.666Z,47.98
2018-12-01T01:05:25.021Z,39.48
2018-12-01T01:07:54.787Z,38.35
2018-12-01T01:10:24.837Z,44.58
2018-12-01T01:12:53.754Z,38.70
2018-12-01T01:15:22.744Z,45.28
2018-12-01T01:17:52.325Z,36.40
2018-12-01T01:20:22.492Z,45.10
2018-12-01T01:22:51.865Z,41.28
2018-12-01T01:25:20.807Z,48.17
2018-12-01T01:27:49.796Z,53.28
2018-12-01T01:30:21.439Z,45.55
2018-12-01T01:32:51.600Z,40.33
2018-12-01T01:35:20.513Z,43.05
2018-12-01T01:37:49.464Z,57.23
2018-12-01T01:40:18.656Z,37.70
2018-12-01T01:42:47.597Z,35.80
2018-12-01T01:45:18.529Z,47.35
2018-12-01T01:47:47.668Z,43.78
2018-12-01T01:50:18.044Z,44.58
2018-12-01T01:52:47.021Z,42.15
2018-12-01T01:55:15.973Z,44.98
2018-12-01T01:57:44.927Z,46.42
2018-12-01T02:00:17.049Z,48.17
2018-12-01T02:02:48.707Z,55.65
2018-12-01T02:05:18.618Z,43.65
2018-12-01T02:07:47.553Z,41.35
2018-12-01T02:10:17.462Z,45.95
2018-12-01T02:12:46.394Z,47.17
2018-12-01T02:15:15.355Z,48.98
2018-12-01T02:17:44.275Z,40.00
2018-12-01T02:20:16.755Z,50.50
2018-12-01T02:22:45.996Z,46.42
2018-12-01T02:25:16.848Z,58.05
2018-12-01T02:27:46.255Z,40.08
2018-12-01T02:30:16.389Z,46.50
2018-12-01T02:32:45.451Z,46.02
2018-12-01T02:35:17.430Z,57.70
2018-12-01T02:37:46.419Z,44.63
2018-12-01T02:40:15.381Z,45.08
2018-12-01T02:42:44.565Z,48.55
2018-12-01T02:45:24.793Z,57.75
2018-12-01T02:47:53.739Z,56.37
2018-12-01T02:50:24.319Z,43.02
2018-12-01T02:52:54.035Z,47.65
2018-12-01T02:55:22.994Z,51.98
2018-12-01T02:57:52.422Z,48.83
2018-12-01T03:00:21.437Z,51.02
2018-12-01T03:02:50.350Z,47.00
2018-12-01T03:05:19.340Z,52.03
2018-12-01T03:07:48.268Z,43.05
2018-12-01T03:10:17.785Z,43.75
2018-12-01T03:12:46.713Z,46.90
2018-12-01T03:15:19.077Z,51.73
2018-12-01T03:17:49.469Z,47.15
2018-12-01T03:20:18.914Z,51.18
2018-12-01T03:22:47.858Z,48.28
2018-12-01T03:25:22.976Z,39.73
2018-12-01T03:27:53.345Z,55.43
2018-12-01T03:30:24.026Z,46.58
2018-12-01T03:32:53.675Z,55.30
2018-12-01T03:35:23.537Z,45.30
2018-12-01T03:37:52.576Z,58.13
2018-12-01T03:40:22.231Z,68.30
2018-12-01T03:42:52.071Z,47.88
2018-12-01T03:45:22.122Z,44.88
2018-12-01T03:47:51.080Z,48.33
2018-12-01T03:50:24.585Z,45.80
2018-12-01T03:52:56.806Z,39.67
2018-12-01T03:55:32.192Z,44.60
2018-12-01T03:58:01.629Z,39.53
2018-12-01T04:00:31.453Z,52.30
2018-12-01T04:03:01.114Z,46.48
2018-12-01T04:05:30.346Z,46.73
2018-12-01T04:07:59.386Z,48.60
2018-12-01T04:10:28.329Z,44.33
2018-12-01T04:12:57.337Z,48.83
2018-12-01T04:15:26.846Z,39.67
2018-12-01T04:17:55.930Z,47.65
2018-12-01T04:20:24.873Z,33.85
2018-12-01T04:22:53.801Z,38.98
2018-12-01T04:25:23.289Z,44.77
2018-12-01T04:27:52.262Z,37.00
2018-12-01T04:30:22.125Z,37.85
2018-12-01T04:32:51.101Z,42.00
2018-12-01T04:35:21.569Z,37.85
2018-12-01T04:37:51.673Z,36.48
2018-12-01T04:40:20.696Z,38.02
2018-12-01T04:42:49.894Z,38.42
2018-12-01T04:45:19.665Z,45.00
2018-12-01T04:47:48.697Z,49.50
2018-12-01T04:50:18.497Z,41.42
2018-12-01T04:52:48.604Z,40.98
2018-12-01T04:55:18.809Z,39.95
2018-12-01T04:57:48.067Z,34.20
2018-12-01T05:00:20.925Z,39.95
2018-12-01T05:02:50.550Z,36.85
2018-12-01T05:05:22.006Z,36.33
2018-12-01T05:07:51.156Z,34.80
2018-12-01T05:10:21.233Z,33.02
2018-12-01T05:12:50.965Z,33.53
2018-12-01T05:15:20.073Z,37.00
2018-12-01T05:17:49.055Z,32.45
2018-12-01T05:20:21.836Z,37.53
2018-12-01T05:22:51.727Z,38.83
2018-12-01T05:25:20.754Z,32.40
2018-12-01T05:27:49.693Z,31.45
2018-12-01T05:30:18.606Z,38.80
2018-12-01T05:32:47.601Z,41.83
2018-12-01T05:35:19.694Z,39.08
2018-12-01T05:37:48.660Z,36.73
2018-12-01T05:40:17.625Z,34.58
2018-12-01T05:42:46.541Z,40.20
2018-12-01T05:45:16.585Z,35.13
2018-12-01T05:47:45.513Z,45.05
2018-12-01T05:50:15.553Z,38.53
2018-12-01T05:52:44.489Z,35.95
2018-12-01T05:55:13.381Z,35.50
2018-12-01T05:57:42.317Z,32.95
2018-12-01T06:00:12.653Z,44.50
2018-12-01T06:02:41.581Z,37.55
2018-12-01T06:05:11.469Z,39.27
2018-12-01T06:07:42.237Z,30.75
2018-12-01T06:10:20.844Z,37.73
2018-12-01T06:12:50.800Z,30.15
2018-12-01T06:15:20.492Z,34.50
2018-12-01T06:17:49.432Z,37.03
2018-12-01T06:20:20.932Z,30.43
2018-12-01T06:22:49.857Z,36.03
2018-12-01T06:25:19.805Z,40.43
2018-12-01T06:27:48.796Z,30.55
2018-12-01T06:30:18.693Z,32.40
2018-12-01T06:32:49.917Z,40.40
2018-12-01T06:35:18.877Z,43.73
2018-12-01T06:37:47.877Z,34.83
2018-12-01T06:40:18.366Z,48.90
2018-12-01T06:42:47.347Z,45.03
2018-12-01T06:45:17.128Z,27.22
2018-12-01T06:47:46.137Z,31.85
2018-12-01T06:50:20.457Z,34.13
2018-12-01T06:52:49.905Z,42.65
2018-12-01T06:55:18.949Z,30.00
2018-12-01T06:57:48.178Z,42.70
2018-12-01T07:00:19.384Z,31.95
2018-12-01T07:02:49.485Z,35.52
2018-12-01T07:05:18.787Z,37.00
2018-12-01T07:07:47.709Z,32.93
2018-12-01T07:10:18.704Z,30.95
2018-12-01T07:12:51.735Z,37.25
2018-12-01T07:15:26.157Z,34.10
2018-12-01T07:17:55.061Z,40.12
2018-12-01T07:20:23.967Z,38.70
2018-12-01T07:22:52.877Z,36.25
2018-12-01T07:25:21.813Z,32.65
2018-12-01T07:27:50.787Z,32.03
2018-12-01T07:30:19.828Z,47.17
2018-12-01T07:32:48.708Z,36.38
2018-12-01T07:35:17.644Z,40.33
2018-12-01T07:37:46.554Z,45.03
2018-12-01T07:40:17.516Z,36.95
2018-12-01T07:42:46.435Z,37.65
2018-12-01T07:45:16.108Z,32.88
2018-12-01T07:47:45.031Z,35.33
2018-12-01T07:50:16.073Z,37.28
2018-12-01T07:52:53.061Z,43.92
2018-12-01T07:55:21.998Z,33.83
2018-12-01T07:57:50.964Z,44.05
2018-12-01T08:00:19.925Z,39.48
2018-12-01T08:02:49.921Z,41.45
2018-12-01T08:05:19.041Z,33.30
2018-12-01T08:07:47.985Z,33.88
2018-12-01T08:10:17.065Z,30.20
2018-12-01T08:12:45.969Z,35.03
2018-12-01T08:15:16.862Z,34.88
2018-12-01T08:17:46.438Z,34.75
2018-12-01T08:20:16.872Z,36.15
2018-12-01T08:22:45.824Z,33.60
2018-12-01T08:25:19.679Z,37.58
2018-12-01T08:27:51.392Z,37.35
2018-12-01T08:30:26.885Z,33.02
2018-12-01T08:32:55.797Z,33.10
2018-12-01T08:35:25.673Z,33.45
2018-12-01T08:37:54.595Z,40.33
2018-12-01T08:40:24.944Z,37.67
2018-12-01T08:42:53.863Z,35.10
2018-12-01T08:45:22.785Z,30.57
2018-12-01T08:47:51.737Z,38.48
2018-12-01T08:50:21.657Z,31.75
2018-12-01T08:52:51.341Z,28.50
2018-12-01T08:55:21.308Z,31.33
2018-12-01T08:57:51.044Z,31.15
2018-12-01T09:00:30.045Z,25.57
2018-12-01T09:03:02.492Z,32.73
2018-12-01T09:05:31.409Z,33.83
2018-12-01T09:08:03.305Z,32.40
2018-12-01T09:10:32.224Z,34.65
2018-12-01T09:13:01.754Z,28.50
2018-12-01T09:15:30.037Z,27.27
2018-12-01T09:17:58.954Z,34.90
2018-12-01T09:20:27.864Z,29.00
2018-12-01T09:22:57.128Z,29.90
2018-12-01T09:25:26.054Z,27.32
2018-12-01T09:27:55.836Z,30.23
2018-12-01T09:30:26.980Z,26.42
2018-12-01T09:32:55.894Z,22.77
2018-12-01T09:35:24.915Z,26.75
2018-12-01T09:37:53.866Z,25.32
2018-12-01T09:40:23.654Z,23.07
2018-12-01T09:42:52.636Z,17.35
2018-12-01T09:45:22.890Z,25.08
2018-12-01T09:47:52.624Z,25.20
2018-12-01T09:50:21.588Z,22.80
2018-12-01T09:52:52.593Z,25.77
2018-12-01T09:55:24.696Z,22.82
2018-12-01T09:57:53.646Z,21.87
2018-12-01T10:00:31.616Z,23.50
2018-12-01T10:03:01.536Z,23.67
2018-12-01T10:05:31.265Z,27.60
2018-12-01T10:08:00.189Z,23.20
2018-12-01T10:10:29.105Z,22.77
2018-12-01T10:12:58.547Z,24.27
2018-12-01T10:15:30.875Z,26.70
2018-12-01T10:17:59.815Z,26.40
2018-12-01T10:20:31.858Z,20.43
2018-12-01T10:23:02.850Z,23.87
2018-12-01T10:25:31.761Z,22.48
2018-12-01T10:28:00.728Z,22.48
2018-12-01T10:30:29.649Z,23.80
2018-12-01T10:32:58.556Z,26.85
2018-12-01T10:35:27.747Z,24.35
2018-12-01T10:37:59.084Z,19.77
2018-12-01T10:40:28.022Z,20.65
2018-12-01T10:42:56.914Z,21.55
2018-12-01T10:45:25.865Z,23.90
2018-12-01T10:47:54.788Z,22.25
2018-12-01T10:50:24.147Z,18.75
2018-12-01T10:52:54.866Z,20.10
2018-12-01T10:55:27.885Z,18.32
2018-12-01T10:57:58.839Z,22.15
2018-12-01T11:00:33.068Z,17.37
2018-12-01T11:03:11.248Z,23.27
2018-12-01T11:05:40.233Z,20.75
2018-12-01T11:08:10.428Z,17.92
2018-12-01T11:10:39.333Z,16.12
2018-12-01T11:13:08.249Z,10.20
2018-12-01T11:15:37.186Z,15.72
2018-12-01T11:18:06.385Z,16.07
2018-12-01T11:20:35.317Z,17.40
2018-12-01T11:23:04.270Z,11.00
2018-12-01T11:25:33.546Z,8.73
2018-12-01T11:28:02.433Z,12.63
2018-12-01T11:30:31.408Z,10.03
2018-12-01T11:33:00.374Z,8.93
2018-12-01T11:35:29.329Z,10.68
2018-12-01T11:37:59.023Z,10.30
2018-12-01T11:40:27.916Z,6.22
2018-12-01T11:42:56.809Z,7.70
2018-12-01T11:45:25.749Z,11.85
2018-12-01T11:47:54.742Z,6.83
2018-12-01T11:50:23.657Z,6.83
2018-12-01T11:52:52.570Z,5.42
2018-12-01T11:55:22.590Z,6.22
2018-12-01T11:57:52.367Z,10.23
2018-12-01T12:00:22.521Z,8.13
2018-12-01T12:02:51.436Z,8.43
2018-12-01T12:05:20.372Z,9.38
2018-12-01T12:08:00.458Z,9.43
2018-12-01T12:10:29.744Z,10.25
2018-12-01T12:12:58.689Z,8.60
2018-12-01T12:15:27.912Z,7.55
2018-12-01T12:17:59.468Z,8.35
2018-12-01T12:20:30.544Z,5.75
2018-12-01T12:22:59.476Z,7.25
2018-12-01T12:25:28.425Z,6.75
2018-12-01T12:27:57.387Z,6.92
2018-12-01T12:30:26.320Z,5.95
2018-12-01T12:32:55.253Z,5.45
2018-12-01T12:35:24.201Z,6.60
2018-12-01T12:37:53.153Z,7.62
2018-12-01T12:40:25.119Z,7.40
2018-12-01T12:42:56.118Z,7.85
2018-12-01T12:45:25.080Z,5.60
2018-12-01T12:47:54.093Z,4.30
2018-12-01T12:50:23.003Z,4.00
2018-12-01T12:52:53.268Z,7.80
2018-12-01T12:55:27.101Z,7.15
2018-12-01T12:57:55.997Z,6.92
2018-12-01T13:00:25.767Z,6.65
2018-12-01T13:03:01.205Z,6.83
2018-12-01T13:05:33.493Z,5.17
2018-12-01T13:08:02.548Z,5.85
2018-12-01T13:10:31.501Z,7.55
2018-12-01T13:13:00.400Z,5.72
2018-12-01T13:15:30.309Z,6.85
2018-12-01T13:17:59.345Z,12.20
2018-12-01T13:20:28.272Z,7.00
2018-12-01T13:22:58.613Z,8.63
2018-12-01T13:25:27.571Z,4.90
2018-12-01T13:28:01.046Z,7.10
2018-12-01T13:30:33.341Z,7.28
2018-12-01T13:33:02.282Z,5.87
2018-12-01T13:35:31.185Z,6.67
2018-12-01T13:38:00.166Z,4.65
2018-12-01T13:40:29.109Z,5.92
2018-12-01T13:42:58.077Z,4.78
2018-12-01T13:45:27.001Z,4.00
2018-12-01T13:47:56.020Z,7.80
2018-12-01T13:50:24.981Z,4.70
2018-12-01T13:52:59.061Z,2.87
2018-12-01T13:55:27.957Z,2.60
2018-12-01T13:57:56.899Z,6.25
2018-12-01T14:00:26.929Z,2.05
2018-12-01T14:02:55.868Z,3.45
2018-12-01T14:05:24.774Z,3.08
2018-12-01T14:07:53.704Z,2.92
2018-12-01T14:10:24.945Z,3.30
2018-12-01T14:12:55.380Z,3.92
2018-12-01T14:15:24.587Z,4.58
2018-12-01T14:17:53.545Z,2.72
2018-12-01T14:20:22.463Z,2.45
2018-12-01T14:22:51.458Z,6.15
2018-12-01T14:25:22.354Z,3.12
2018-12-01T14:27:53.326Z,9.88
2018-12-01T14:30:22.911Z,5.75
2018-12-01T14:32:51.822Z,3.85
2018-12-01T14:35:25.129Z,3.22
2018-12-01T14:37:57.559Z,4.17
2018-12-01T14:40:26.487Z,3.83
2018-12-01T14:42:55.381Z,2.75
2018-12-01T14:45:24.278Z,6.12
2018-12-01T14:47:53.163Z,2.70
2018-12-01T14:50:22.113Z,5.05
2018-12-01T14:52:51.001Z,4.97
2018-12-01T14:55:26.639Z,3.15
2018-12-01T14:57:55.518Z,4.37
2018-12-01T15:00:25.427Z,7.97
2018-12-01T15:02:55.418Z,2.85
2018-12-01T15:05:25.138Z,6.03
2018-12-01T15:07:54.037Z,2.47
2018-12-01T15:10:26.863Z,4.67
2018-12-01T15:12:55.782Z,5.60
2018-12-01T15:15:26.744Z,5.60
2018-12-01T15:17:55.632Z,7.03
2018-12-01T15:20:25.645Z,6.78
2018-12-01T15:22:56.433Z,5.50
2018-12-01T15:25:26.421Z,6.17
2018-12-01T15:27:55.381Z,6.22
2018-12-01T15:30:25.300Z,6.60
2018-12-01T15:33:02.686Z,5.70
2018-12-01T15:35:31.670Z,8.55
2018-12-01T15:38:00.603Z,6.20
2018-12-01T15:40:29.494Z,7.12
2018-12-01T15:42:58.421Z,6.25
2018-12-01T15:45:27.332Z,14.93
2018-12-01T15:47:56.293Z,7.67
2018-12-01T15:50:25.181Z,7.00
2018-12-01T15:52:56.388Z,8.40
2018-12-01T15:55:25.360Z,9.35
2018-12-01T15:57:54.296Z,9.93
2018-12-01T16:00:25.299Z,7.53
2018-12-01T16:02:54.286Z,5.15
2018-12-01T16:05:24.055Z,8.30
2018-12-01T16:07:54.196Z,10.35
2018-12-01T16:10:23.658Z,7.10
2018-12-01T16:12:57.013Z,11.38
2018-12-01T16:15:32.253Z,9.00
2018-12-01T16:18:01.224Z,10.23
2018-12-01T16:20:30.203Z,8.90
2018-12-01T16:22:59.155Z,10.65
2018-12-01T16:25:28.396Z,11.10
2018-12-01T16:27:57.333Z,13.40
2018-12-01T16:30:34.012Z,13.68
2018-12-01T16:33:05.036Z,14.38
2018-12-01T16:35:33.934Z,12.20
2018-12-01T16:38:03.084Z,12.15
2018-12-01T16:40:34.582Z,10.28
2018-12-01T16:43:05.629Z,11.93
2018-12-01T16:45:34.528Z,11.20
2018-12-01T16:48:03.464Z,12.55
2018-12-01T16:50:32.353Z,12.80
2018-12-01T16:53:01.281Z,10.53
2018-12-01T16:55:30.249Z,11.25
2018-12-01T16:57:59.173Z,13.08
2018-12-01T17:00:28.072Z,14.10
2018-12-01T17:02:58.296Z,11.90
2018-12-01T17:05:30.685Z,13.00
2018-12-01T17:07:59.604Z,10.93
2018-12-01T17:10:28.515Z,12.63
2018-12-01T17:12:58.403Z,11.55
2018-12-01T17:15:26.721Z,15.60
2018-12-01T17:17:55.733Z,14.80
2018-12-01T17:20:24.643Z,16.40
2018-12-01T17:22:55.201Z,13.20
2018-12-01T17:25:24.099Z,11.35
2018-12-01T17:27:54.251Z,10.85
2018-12-01T17:30:25.473Z,12.50
2018-12-01T17:32:55.269Z,13.10
2018-12-01T17:35:27.310Z,12.03
2018-12-01T17:37:59.300Z,11.53
2018-12-01T17:40:33.821Z,13.60
2018-12-01T17:43:02.767Z,10.80
2018-12-01T17:45:31.682Z,16.80
2018-12-01T17:48:00.701Z,12.45
2018-12-01T17:50:29.627Z,11.05
2018-12-01T17:52:58.581Z,13.28
2018-12-01T17:55:28.779Z,13.50
2018-12-01T17:57:57.697Z,13.90
2018-12-01T18:00:27.918Z,12.13
2018-12-01T18:02:58.541Z,14.90
2018-12-01T18:05:44.994Z,13.05
2018-12-01T18:08:17.504Z,14.07
2018-12-01T18:10:47.596Z,15.88
2018-12-01T18:13:16.731Z,18.40
2018-12-01T18:15:45.685Z,12.63
2018-12-01T18:18:14.610Z,12.25
2018-12-01T18:20:43.512Z,14.28
2018-12-01T18:23:14.917Z,13.35
2018-12-01T18:25:46.290Z,9.95
2018-12-01T18:28:18.572Z,13.25
2018-12-01T18:30:47.512Z,15.13
2018-12-01T18:33:19.449Z,15.05
2018-12-01T18:35:48.444Z,15.38
2018-12-01T18:38:17.377Z,12.93
2018-12-01T18:40:46.291Z,15.72
2018-12-01T18:43:15.227Z,14.13
2018-12-01T18:45:46.340Z,13.08
2018-12-01T18:48:15.276Z,16.40
2018-12-01T18:50:44.177Z,13.13
2018-12-01T18:53:13.159Z,11.60
2018-12-01T18:55:45.677Z,13.55
2018-12-01T18:58:14.598Z,12.85
2018-12-01T19:00:45.882Z,15.32
2018-12-01T19:03:15.037Z,14.28
2018-12-01T19:05:43.965Z,12.35
2018-12-01T19:08:12.968Z,16.00
2018-12-01T19:10:41.866Z,11.28
2018-12-01T19:13:10.774Z,14.35
2018-12-01T19:15:39.739Z,10.88
2018-12-01T19:18:09.175Z,12.53
2018-12-01T19:20:38.958Z,15.25
2018-12-01T19:23:09.476Z,13.28
2018-12-01T19:25:39.948Z,18.82
2018-12-01T19:28:08.829Z,16.30
2018-12-01T19:30:37.754Z,17.50
2018-12-01T19:33:09.461Z,17.10
2018-12-01T19:35:38.492Z,14.40
2018-12-01T19:38:08.972Z,13.58
2018-12-01T19:40:37.921Z,14.78
2018-12-01T19:43:07.052Z,16.75
2018-12-01T19:45:36.105Z,18.80
2018-12-01T19:48:05.664Z,18.80
2018-12-01T19:50:36.613Z,16.67
2018-12-01T19:53:07.816Z,17.05
2018-12-01T19:55:37.341Z,15.98
2018-12-01T19:58:26.034Z,14.75
2018-12-01T20:00:56.282Z,19.35
2018-12-01T20:03:26.395Z,18.20
2018-12-01T20:05:55.229Z,13.10
2018-12-01T20:08:24.876Z,18.95
2018-12-01T20:11:00.249Z,16.48
2018-12-01T20:13:34.760Z,14.75
2018-12-01T20:16:10.156Z,14.75
2018-12-01T20:18:39.048Z,18.32
2018-12-01T20:21:07.977Z,15.43
2018-12-01T20:23:36.901Z,14.75
2018-12-01T20:26:06.690Z,15.78
2018-12-01T20:28:35.610Z,17.67
2018-12-01T20:31:07.753Z,17.70
2018-12-01T20:33:36.681Z,20.05
2018-12-01T20:37:12.801Z,19.73
2018-12-01T20:39:43.536Z,15.23
2018-12-01T20:42:12.440Z,18.15
2018-12-01T20:44:41.341Z,18.52
2018-12-01T20:47:10.257Z,14.85
2018-12-01T20:49:39.150Z,14.78
2018-12-01T20:52:08.040Z,15.85
2018-12-01T20:54:41.093Z,16.07
2018-12-01T20:57:20.850Z,16.42
2018-12-01T20:59:49.760Z,16.77
2018-12-01T21:02:18.653Z,18.70
2018-12-01T21:04:47.547Z,14.40
2018-12-01T21:07:16.501Z,22.00
2018-12-01T21:09:45.405Z,15.50
2018-12-01T21:12:14.981Z,18.15
2018-12-01T21:14:43.889Z,14.43
2018-12-01T21:17:12.793Z,18.10
2018-12-01T21:19:41.685Z,17.07
2018-12-01T21:22:10.623Z,18.67
2018-12-01T21:24:39.493Z,16.57
2018-12-01T21:27:08.419Z,17.48
2018-12-01T21:29:37.309Z,16.42
2018-12-01T21:32:07.273Z,22.00
2018-12-01T21:34:36.177Z,20.23
2018-12-01T21:37:05.659Z,18.15
2018-12-01T21:39:34.554Z,20.57
2018-12-01T21:42:03.481Z,16.12
2018-12-01T21:44:32.412Z,17.40
2018-12-01T21:47:01.325Z,19.98
2018-12-01T21:49:30.244Z,17.15
2018-12-01T21:51:59.133Z,20.20
2018-12-01T21:54:28.054Z,16.77
2018-12-01T21:56:56.992Z,20.23
2018-12-01T21:59:25.928Z,17.95
2018-12-01T22:01:54.869Z,21.05
2018-12-01T22:04:23.792Z,18.27
2018-12-01T22:06:52.739Z,16.50
2018-12-01T22:09:21.634Z,17.73
2018-12-01T22:11:50.541Z,17.57
2018-12-01T22:14:19.457Z,16.48
2018-12-01T22:16:48.452Z,20.23
2018-12-01T22:19:17.345Z,23.52
2018-12-01T22:21:46.297Z,18.23
2018-12-01T22:24:15.204Z,17.82
2018-12-01T22:26:44.133Z,20.57
2018-12-01T22:29:13.041Z,17.57
2018-12-01T22:31:41.965Z,19.07
2018-12-01T22:34:10.845Z,18.02
2018-12-01T22:36:39.753Z,19.65
2018-12-01T22:39:10.384Z,18.90
2018-12-01T22:41:39.401Z,20.23
2018-12-01T22:44:08.326Z,18.23
2018-12-01T22:46:37.289Z,20.77
2018-12-01T22:49:06.549Z,17.48
2018-12-01T22:51:35.489Z,18.20
2018-12-01T22:54:05.056Z,17.20
2018-12-01T22:56:34.289Z,19.98
2018-12-01T22:59:03.177Z,15.78
2018-12-01T23:01:32.113Z,18.77
2018-12-01T23:04:02.082Z,20.92
2018-12-01T23:06:31.022Z,20.17
2018-12-01T23:09:00.062Z,17.48
2018-12-01T23:11:28.977Z,19.80
2018-12-01T23:13:57.884Z,20.25
2018-12-01T23:16:26.797Z,20.10
2018-12-01T23:18:55.713Z,23.00
2018-12-01T23:21:24.627Z,19.55
2018-12-01T23:23:53.566Z,16.93
2018-12-01T23:26:22.477Z,19.23
2018-12-01T23:28:51.853Z,17.35
2018-12-01T23:31:20.765Z,17.67
2018-12-01T23:33:50.309Z,19.15
2018-12-01T23:36:19.211Z,18.77
2018-12-01T23:38:48.229Z,18.15
2018-12-01T23:41:17.149Z,16.77
2018-12-01T23:43:46.093Z,16.50
2018-12-01T23:46:15.038Z,15.48
2018-12-01T23:48:43.972Z,15.53
2018-12-01T23:51:12.868Z,16.52
2018-12-01T23:53:41.833Z,16.20
2018-12-01T23:56:10.838Z,15.28
2018-12-01T23:58:39.741Z,14.90
